createdAt,value
2022-08-18T05:30:38.035Z,7.28
2022-08-18T05:35:37.368Z,6.80
2022-08-18T05:40:31.993Z,6.18
2022-08-18T05:45:27.021Z,6.82
2022-08-18T05:50:22.720Z,5.38
2022-08-18T06:10:27.684Z,5.57
2022-08-18T06:15:25.486Z,5.57
2022-08-18T06:20:27.259Z,5.90
2022-08-18T06:25:28.331Z,6.57
2022-08-18T06:30:28.218Z,5.32
2022-08-18T06:35:33.431Z,5.90
2022-08-18T06:40:27.296Z,6.05
2022-08-18T06:45:26.162Z,5.53
2022-08-18T06:50:37.209Z,5.15
2022-08-18T06:55:39.624Z,5.22
2022-08-18T07:00:37.245Z,4.70
2022-08-18T07:05:33.212Z,5.20
2022-08-18T07:10:34.098Z,5.20
2022-08-18T07:15:27.750Z,4.90
2022-08-18T07:20:25.867Z,5.20
2022-08-18T07:25:24.505Z,5.10
2022-08-18T07:30:30.414Z,4.55
2022-08-18T07:35:39.840Z,5.20
2022-08-18T07:40:39.602Z,4.38
2022-08-18T07:45:37.954Z,4.60
2022-08-18T07:50:58.457Z,3.83
2022-08-18T07:56:01.246Z,3.70
2022-08-18T08:01:00.836Z,3.75
2022-08-18T08:06:15.745Z,3.60
2022-08-18T08:11:18.651Z,3.78
2022-08-18T08:16:18.551Z,3.85
2022-08-18T08:21:19.141Z,3.70
2022-08-18T08:26:39.255Z,3.65
2022-08-18T08:31:42.567Z,4.25
2022-08-18T08:36:40.787Z,3.83
2022-08-18T08:41:40.007Z,4.13
2022-08-18T08:46:42.627Z,3.80
2022-08-18T08:51:41.033Z,3.28
2022-08-18T08:56:38.356Z,3.92
2022-08-18T09:01:36.956Z,3.40
2022-08-18T09:06:41.012Z,4.22
2022-08-18T09:11:57.004Z,4.25
2022-08-18T09:17:01.232Z,4.60
2022-08-18T09:22:01.876Z,4.47
2022-08-18T09:27:19.300Z,4.88
2022-08-18T09:33:01.478Z,4.60
2022-08-18T09:38:20.610Z,4.60
2022-08-18T09:48:34.108Z,4.20
2022-08-18T09:53:55.264Z,4.25
2022-08-18T09:58:56.049Z,4.07
2022-08-18T10:04:34.384Z,3.75
2022-08-18T10:09:37.981Z,3.80
2022-08-18T10:14:58.196Z,3.88
2022-08-18T10:20:01.237Z,4.53
2022-08-18T10:25:09.173Z,3.95
2022-08-18T10:36:40.080Z,3.90
2022-08-18T10:41:41.518Z,4.32
2022-08-18T10:52:45.854Z,4.00
2022-08-18T10:58:01.663Z,3.85
2022-08-18T11:08:25.142Z,3.55
2022-08-18T11:13:30.862Z,3.47
2022-08-18T11:18:36.253Z,3.22
2022-08-18T11:23:41.212Z,3.20
2022-08-18T11:28:53.465Z,3.05
2022-08-18T11:33:52.632Z,3.10
2022-08-18T11:38:57.964Z,3.10
2022-08-18T11:43:58.454Z,2.67
2022-08-18T11:48:54.925Z,3.05
2022-08-18T11:54:00.636Z,2.88
2022-08-18T11:58:58.262Z,3.40
2022-08-18T12:03:53.481Z,3.42
2022-08-18T12:08:59.140Z,3.38
2022-08-18T12:14:31.744Z,3.08
2022-08-18T12:24:34.559Z,3.15
2022-08-18T12:29:43.371Z,2.80
2022-08-18T12:34:39.262Z,2.55
2022-08-18T12:39:40.128Z,2.47
2022-08-18T12:44:34.598Z,2.80
2022-08-18T12:49:35.220Z,3.30
2022-08-18T12:54:34.592Z,3.58
2022-08-18T12:59:28.326Z,3.47
2022-08-18T13:04:27.150Z,3.10
2022-08-18T13:09:34.093Z,4.13
2022-08-18T13:14:37.069Z,4.32
2022-08-18T13:19:38.026Z,3.80
2022-08-18T13:24:33.296Z,4.30
2022-08-18T13:29:26.951Z,4.15
2022-08-18T13:34:22.521Z,4.40
2022-08-18T13:39:19.497Z,4.45
2022-08-18T13:44:18.563Z,4.25
2022-08-18T13:49:14.364Z,4.40
2022-08-18T13:54:30.838Z,4.53
2022-08-18T13:59:31.712Z,2.78
2022-08-18T14:04:28.006Z,1.60
2022-08-18T14:09:35.792Z,1.70
2022-08-18T14:14:32.183Z,2.00
2022-08-18T14:25:01.837Z,1.60
2022-08-18T14:29:55.479Z,1.73
2022-08-18T14:34:50.799Z,1.98
2022-08-18T14:39:47.933Z,1.80
2022-08-18T14:44:45.786Z,2.10
2022-08-18T14:49:43.006Z,1.83
2022-08-18T14:54:41.779Z,1.85
2022-08-18T14:59:41.432Z,2.10
2022-08-18T15:04:38.370Z,2.28
2022-08-18T15:09:46.286Z,1.88
2022-08-18T15:14:43.061Z,2.40
2022-08-18T15:19:58.417Z,1.90
2022-08-18T15:25:07.693Z,2.30
2022-08-18T15:30:07.186Z,2.22
2022-08-18T15:35:02.625Z,2.38
2022-08-18T15:40:21.765Z,2.53
2022-08-18T15:45:35.459Z,1.90
2022-08-18T15:50:29.854Z,2.22
2022-08-18T15:55:27.725Z,2.17
2022-08-18T16:00:22.498Z,2.28
2022-08-18T16:05:23.996Z,2.88
2022-08-18T16:10:22.162Z,2.42
2022-08-18T16:15:21.094Z,2.60
2022-08-18T16:20:15.460Z,2.30
2022-08-18T16:25:11.114Z,2.70
2022-08-18T16:30:06.303Z,2.20
2022-08-18T16:35:00.426Z,2.70
2022-08-18T16:39:53.987Z,2.45
2022-08-18T16:44:49.687Z,2.53
2022-08-18T16:49:44.763Z,2.50
2022-08-18T16:54:38.890Z,2.47
2022-08-18T16:59:49.925Z,2.42
2022-08-18T17:04:45.052Z,2.45
2022-08-18T17:09:39.084Z,2.50
2022-08-18T17:14:33.931Z,2.30
2022-08-18T17:19:31.330Z,2.53
2022-08-18T17:24:32.247Z,2.58
2022-08-18T17:29:31.346Z,2.88
2022-08-18T17:34:35.030Z,2.50
2022-08-18T17:39:34.889Z,3.25
2022-08-18T17:44:31.209Z,2.70
2022-08-18T17:49:54.275Z,2.90
2022-08-18T17:55:15.399Z,2.80
2022-08-18T18:00:16.621Z,3.03
2022-08-18T18:05:12.725Z,2.28
2022-08-18T18:10:10.358Z,2.53
2022-08-18T18:15:08.101Z,2.80
2022-08-18T18:20:38.070Z,2.47
2022-08-18T18:25:35.160Z,3.03
2022-08-18T18:30:30.495Z,2.65
2022-08-18T18:35:30.172Z,2.88
2022-08-18T18:40:31.219Z,2.83
2022-08-18T18:45:29.109Z,3.05
2022-08-18T18:50:28.951Z,2.88
2022-08-18T18:55:26.993Z,3.17
2022-08-18T19:00:24.303Z,2.33
2022-08-18T19:05:26.627Z,2.70
2022-08-18T19:10:27.151Z,2.78
2022-08-18T19:15:22.594Z,2.78
2022-08-18T19:20:21.643Z,3.03
2022-08-18T19:25:20.840Z,2.97
2022-08-18T19:30:17.364Z,3.00
2022-08-18T19:35:19.529Z,2.83
2022-08-18T19:40:24.196Z,2.47
2022-08-18T19:45:29.754Z,2.50
2022-08-18T19:50:31.364Z,2.78
2022-08-18T19:55:35.898Z,3.05
2022-08-18T20:00:39.837Z,2.90
2022-08-18T20:05:46.486Z,2.50
2022-08-18T20:11:11.100Z,2.63
2022-08-18T20:16:33.113Z,2.55
